Time;durP1;ratioP1;P1;durP2;ratioP2;P2;SDS_P1;SDS_P2;PMS_P1;PMS_P2;Temp;Humidity;BMP_temperature;BMP_pressure;BME280_temperature;BME280_humidity;BME280_pressure;Samples;Min_cycle;Max_cycle;Signal;HPM_P1;HPM_P2
2023/01/06 00:01:27;;;;;;;58.85;36.80;;;281.90;2278.40;;;;;;5089805;28;20229;-58
2023/01/06 00:03:57;;;;;;;36.60;22.92;;;281.70;2278.40;;;;;;5089559;28;20034;-58
2023/01/06 00:06:28;;;;;;;31.38;20.67;;;281.70;2278.40;;;;;;5089471;28;20157;-60
2023/01/06 00:08:59;;;;;;;55.05;31.95;;;281.70;2278.40;;;;;;5089410;28;20025;-59
2023/01/06 00:11:25;;;;;;;82.90;46.22;;;281.90;2278.40;;;;;;5089842;28;20028;-58
2023/01/06 00:13:51;;;;;;;28.65;19.67;;;281.90;2278.40;;;;;;5089322;28;20103;-58
2023/01/06 00:16:20;;;;;;;17.13;10.63;;;281.90;2278.40;;;;;;5089561;28;20107;-60
2023/01/06 00:18:46;;;;;;;102.80;62.60;;;281.90;2278.40;;;;;;5089345;28;20115;-59
2023/01/06 00:21:13;;;;;;;74.60;48.45;;;281.60;2278.40;;;;;;5089373;28;20097;-58
2023/01/06 00:23:39;;;;;;;65.00;40.38;;;281.70;2278.40;;;;;;5091285;28;20032;-59
2023/01/06 00:26:07;;;;;;;50.72;32.40;;;281.60;2278.40;;;;;;5092996;28;20020;-59
2023/01/06 00:28:33;;;;;;;43.13;27.23;;;256.90;2252.80;;;;;;5092836;28;20032;-58
2023/01/06 00:31:05;;;;;;;72.15;45.72;;;256.90;2252.80;;;;;;5092884;28;20024;-58
2023/01/06 00:33:31;;;;;;;89.82;56.15;;;256.70;2252.80;;;;;;5093089;28;20389;-59
2023/01/06 00:35:59;;;;;;;46.75;28.77;;;256.70;2252.80;;;;;;5093385;28;20027;-60
2023/01/06 00:38:25;;;;;;;92.82;52.33;;;256.90;2252.80;;;;;;5092844;28;20040;-59
2023/01/06 00:40:51;;;;;;;64.32;35.25;;;256.90;2252.80;;;;;;5093195;28;20846;-59
2023/01/06 00:43:16;;;;;;;18.15;12.48;;;281.70;2278.40;;;;;;5092923;28;20025;-61
2023/01/06 00:45:42;;;;;;;75.82;44.85;;;256.90;2252.80;;;;;;5092510;28;20055;-57
2023/01/06 00:48:08;;;;;;;20.88;11.77;;;256.90;2252.80;;;;;;5092559;28;20028;-59
2023/01/06 00:50:34;;;;;;;18.83;13.23;;;281.70;2278.40;;;;;;5092621;28;20023;-58
2023/01/06 00:52:59;;;;;;;108.30;67.18;;;281.70;2278.40;;;;;;5092519;28;20481;-59
2023/01/06 00:55:25;;;;;;;99.95;64.30;;;256.90;2252.80;;;;;;5092680;28;20030;-59
2023/01/06 00:57:51;;;;;;;60.92;38.58;;;256.70;2252.80;;;;;;5092515;28;20156;-59
2023/01/06 01:00:18;;;;;;;34.30;22.58;;;256.60;2252.80;;;;;;5092634;28;20058;-60
2023/01/06 01:02:44;;;;;;;53.00;33.67;;;256.60;2252.80;;;;;;5092308;28;20024;-60
2023/01/06 01:05:09;;;;;;;29.10;17.90;;;256.50;2252.80;;;;;;5092152;28;20099;-59
2023/01/06 01:07:35;;;;;;;25.27;14.77;;;256.50;2252.80;;;;;;5092481;28;20012;-60
2023/01/06 01:10:02;;;;;;;18.30;12.40;;;256.40;2252.80;;;;;;5092105;28;20429;-59
2023/01/06 01:12:27;;;;;;;69.47;43.00;;;256.60;2252.80;;;;;;5092607;28;20073;-58
2023/01/06 01:14:53;;;;;;;38.28;26.40;;;256.50;2252.80;;;;;;5092368;28;20028;-58
2023/01/06 01:17:26;;;;;;;38.05;25.67;;;256.50;2252.80;;;;;;5092009;28;20027;-59
2023/01/06 01:19:54;;;;;;;19.07;13.33;;;256.30;2252.80;;;;;;5092299;28;20036;-58
2023/01/06 01:22:21;;;;;;;16.45;10.25;;;256.30;2252.80;;;;;;5092239;28;20031;-59
2023/01/06 01:24:46;;;;;;;13.85;8.43;;;256.50;2252.80;;;;;;5092002;28;20381;-58
2023/01/06 01:27:12;;;;;;;19.95;14.05;;;256.80;2252.80;;;;;;5091914;28;20032;-59
2023/01/06 01:29:38;;;;;;;43.10;26.65;;;256.90;2252.80;;;;;;5092113;28;20169;-59
2023/01/06 01:32:04;;;;;;;36.10;22.23;;;256.90;2252.80;;;;;;5091905;28;20016;-58
2023/01/06 01:34:29;;;;;;;53.47;39.50;;;281.60;2278.40;;;;;;5090805;28;20555;-59
2023/01/06 01:36:55;;;;;;;40.72;27.63;;;256.90;2252.80;;;;;;5091921;28;20359;-59
2023/01/06 01:39:24;;;;;;;18.92;13.70;;;256.80;2252.80;;;;;;5091523;28;20124;-58
2023/01/06 01:41:49;;;;;;;105.00;62.42;;;256.70;2252.80;;;;;;5091713;28;20100;-58
2023/01/06 01:44:52;;;;;;;30.05;18.25;;;256.70;2252.80;;;;;;5091564;28;20100;-59
2023/01/06 01:47:40;;;;;;;18.42;10.43;;;256.80;2252.80;;;;;;5091485;28;20419;-59
2023/01/06 01:50:31;;;;;;;16.15;10.13;;;256.80;2252.80;;;;;;5080915;28;20403;-60
2023/01/06 01:53:12;;;;;;;153.30;85.75;;;256.70;2252.80;;;;;;5091558;28;20382;-58
2023/01/06 01:55:38;;;;;;;296.42;154.63;;;256.60;2252.80;;;;;;5091558;28;20534;-59
2023/01/06 01:58:18;;;;;;;37.70;21.98;;;256.60;2252.80;;;;;;5091462;28;20032;-59
2023/01/06 02:00:44;;;;;;;19.45;13.88;;;256.50;2252.80;;;;;;5091477;28;20036;-59
2023/01/06 02:03:12;;;;;;;27.95;18.15;;;256.20;2252.80;;;;;;5091192;28;20076;-58
2023/01/06 02:05:42;;;;;;;42.20;30.00;;;256.00;2252.80;;;;;;5090697;28;20035;-59
2023/01/06 02:08:27;;;;;;;18.95;11.05;;;231.30;2252.80;;;;;;5091170;28;20060;-59
2023/01/06 02:10:53;;;;;;;10.98;7.72;;;231.20;2252.80;;;;;;5091148;28;20066;-58
2023/01/06 02:13:19;;;;;;;12.82;7.45;;;231.30;2252.80;;;;;;5091000;28;20048;-58
2023/01/06 02:15:44;;;;;;;13.10;8.05;;;256.00;2252.80;;;;;;5091067;28;20501;-58
2023/01/06 02:18:27;;;;;;;49.60;32.45;;;231.30;2252.80;;;;;;5090686;28;20174;-59
2023/01/06 02:21:05;;;;;;;12.77;8.50;;;231.30;2252.80;;;;;;5090975;28;20039;-58
2023/01/06 02:23:56;;;;;;;14.80;9.05;;;231.30;2252.80;;;;;;5091134;28;20082;-59
2023/01/06 02:27:02;;;;;;;53.42;39.25;;;231.30;2252.80;;;;;;5090774;28;20656;-58
2023/01/06 02:29:40;;;;;;;94.70;56.35;;;231.30;2252.80;;;;;;5008889;28;20030;-59
2023/01/06 02:32:06;;;;;;;18.17;12.00;;;256.10;2252.80;;;;;;5008666;28;20476;-59
2023/01/06 02:34:50;;;;;;;25.75;15.85;;;256.30;2252.80;;;;;;5008619;28;20038;-59
2023/01/06 02:37:42;;;;;;;69.03;41.72;;;256.50;2252.80;;;;;;5008805;28;20030;-58
2023/01/06 02:40:40;;;;;;;26.63;17.02;;;256.50;2252.80;;;;;;5008454;28;20196;-58
2023/01/06 02:43:13;;;;;;;81.68;54.03;;;256.70;2252.80;;;;;;4992382;28;20442;-58
2023/01/06 02:45:46;;;;;;;70.10;45.00;;;256.20;2252.80;;;;;;5008004;28;20046;-59
2023/01/06 02:48:39;;;;;;;87.60;54.08;;;256.10;2252.80;;;;;;5008181;28;20413;-59
2023/01/06 02:51:35;;;;;;;83.57;52.78;;;256.20;2252.80;;;;;;5008565;28;20022;-59
2023/01/06 02:54:26;;;;;;;73.28;46.75;;;256.40;2252.80;;;;;;5008350;28;20053;-60
2023/01/06 02:57:24;;;;;;;76.85;43.28;;;256.30;2252.80;;;;;;5008308;28;20034;-60
2023/01/06 03:00:08;;;;;;;75.65;46.03;;;256.20;2252.80;;;;;;4981723;28;20046;-60
2023/01/06 03:02:36;;;;;;;72.85;43.78;;;256.20;2252.80;;;;;;5008248;28;20053;-59
2023/01/06 03:05:05;;;;;;;67.95;39.17;;;256.20;2252.80;;;;;;5047931;28;20032;-60
2023/01/06 03:07:32;;;;;;;39.85;25.50;;;256.20;2252.80;;;;;;5090366;28;20032;-60
2023/01/06 03:10:00;;;;;;;36.65;20.98;;;256.30;2252.80;;;;;;5089822;28;20065;-59
2023/01/06 03:12:34;;;;;;;92.80;56.47;;;256.30;2252.80;;;;;;5090325;28;20032;-59
2023/01/06 03:15:00;;;;;;;59.75;40.15;;;256.30;2252.80;;;;;;5090037;28;20024;-58
2023/01/06 03:17:26;;;;;;;52.30;34.13;;;256.20;2252.80;;;;;;5090289;28;20069;-60
2023/01/06 03:19:52;;;;;;;46.22;28.23;;;256.30;2252.80;;;;;;5089882;28;20524;-59
2023/01/06 03:22:18;;;;;;;36.97;21.85;;;256.40;2252.80;;;;;;5090135;28;20206;-60
2023/01/06 03:24:45;;;;;;;44.17;28.27;;;256.40;2252.80;;;;;;5090012;28;20501;-58
2023/01/06 03:27:11;;;;;;;38.85;25.80;;;256.50;2252.80;;;;;;5090087;28;20024;-59
2023/01/06 03:29:37;;;;;;;15.30;11.00;;;256.60;2252.80;;;;;;5090166;28;20543;-59
2023/01/06 03:32:17;;;;;;;26.27;16.17;;;256.70;2252.80;;;;;;5089801;28;20506;-60
2023/01/06 03:35:04;;;;;;;14.57;8.85;;;256.80;2252.80;;;;;;5090015;28;20106;-58
2023/01/06 03:37:39;;;;;;;12.38;7.40;;;256.80;2252.80;;;;;;5089893;28;20111;-59
2023/01/06 03:40:29;;;;;;;8.75;6.88;;;256.90;2252.80;;;;;;5089812;28;20125;-59
2023/01/06 03:43:14;;;;;;;9.02;6.60;;;256.90;2252.80;;;;;;5090007;28;20119;-59
2023/01/06 03:45:55;;;;;;;12.07;7.72;;;256.80;2252.80;;;;;;5089580;28;20534;-59
2023/01/06 03:48:39;;;;;;;9.23;6.55;;;256.70;2252.80;;;;;;5089669;28;20063;-58
2023/01/06 03:51:41;;;;;;;9.40;6.22;;;256.60;2252.80;;;;;;5089999;28;20020;-59
2023/01/06 03:54:34;;;;;;;9.32;5.22;;;256.50;2252.80;;;;;;5089901;28;20058;-59
2023/01/06 03:57:06;;;;;;;9.73;7.25;;;256.40;2252.80;;;;;;5089712;28;20399;-59
2023/01/06 03:59:36;;;;;;;9.98;6.47;;;256.20;2252.80;;;;;;5093302;28;20083;-59
2023/01/06 04:02:04;;;;;;;7.43;5.65;;;256.20;2252.80;;;;;;5093659;28;20069;-59
2023/01/06 04:04:30;;;;;;;8.35;4.55;;;256.20;2252.80;;;;;;5093681;28;20103;-59
2023/01/06 04:06:55;;;;;;;8.30;6.28;;;256.20;2252.80;;;;;;5093752;28;20550;-59
2023/01/06 04:09:21;;;;;;;8.90;4.90;;;256.30;2252.80;;;;;;5093373;28;20036;-57
2023/01/06 04:14:31;;;;;;;29.27;17.73;;;256.50;2252.80;;;;;;5093735;28;20042;-58
2023/01/06 04:16:57;;;;;;;35.88;19.08;;;256.40;2252.80;;;;;;5093744;28;20835;-58
2023/01/06 04:19:23;;;;;;;32.83;22.15;;;256.40;2252.80;;;;;;5093465;28;20390;-58
2023/01/06 04:21:48;;;;;;;27.17;19.75;;;256.30;2252.80;;;;;;5093096;28;20016;-59
2023/01/06 04:24:14;;;;;;;68.55;37.20;;;256.10;2252.80;;;;;;5093263;28;20047;-58
2023/01/06 04:26:40;;;;;;;52.35;33.83;;;231.30;2252.80;;;;;;5093038;28;20017;-59
2023/01/06 04:29:05;;;;;;;37.97;23.98;;;231.30;2252.80;;;;;;5093469;28;20028;-58
2023/01/06 04:31:31;;;;;;;26.00;16.65;;;256.00;2252.80;;;;;;5093177;28;20020;-57
2023/01/06 04:33:57;;;;;;;34.08;21.13;;;231.30;2252.80;;;;;;5093196;28;20024;-59
2023/01/06 04:36:22;;;;;;;34.85;20.23;;;256.20;2252.80;;;;;;5092924;28;20141;-60
2023/01/06 04:38:48;;;;;;;27.02;16.83;;;256.30;2252.80;;;;;;5092795;28;20043;-59
2023/01/06 04:41:14;;;;;;;20.55;14.35;;;256.10;2252.80;;;;;;5092934;28;20107;-59
2023/01/06 04:43:39;;;;;;;18.48;11.70;;;256.10;2252.80;;;;;;5092816;28;20463;-58
2023/01/06 04:46:05;;;;;;;14.82;9.63;;;256.10;2252.80;;;;;;5092908;28;20051;-59
2023/01/06 04:48:31;;;;;;;17.05;10.70;;;256.10;2252.80;;;;;;5092796;28;20490;-59
2023/01/06 04:51:01;;;;;;;11.82;8.65;;;256.10;2252.80;;;;;;5093329;28;20016;-60
2023/01/06 04:53:26;;;;;;;17.58;12.57;;;256.10;2252.80;;;;;;5092975;28;20028;-60
2023/01/06 04:55:52;;;;;;;32.10;23.35;;;256.00;2252.80;;;;;;5092463;28;20028;-58
2023/01/06 04:58:18;;;;;;;29.25;20.10;;;231.30;2252.80;;;;;;5092674;28;20028;-59
2023/01/06 05:00:43;;;;;;;41.60;26.65;;;256.00;2252.80;;;;;;5092765;28;20051;-58
2023/01/06 05:03:09;;;;;;;33.42;21.27;;;256.00;2252.80;;;;;;5092404;28;20549;-59
2023/01/06 05:05:35;;;;;;;37.50;27.10;;;256.00;2252.80;;;;;;5092508;28;20489;-59
2023/01/06 05:08:00;;;;;;;34.55;26.55;;;256.10;2252.80;;;;;;5092486;28;20028;-59
2023/01/06 05:10:26;;;;;;;36.78;27.02;;;256.20;2252.80;;;;;;5090885;28;20028;-58
2023/01/06 05:12:52;;;;;;;36.38;26.98;;;256.30;2252.80;;;;;;5092037;28;20036;-58
2023/01/06 05:15:17;;;;;;;36.97;25.27;;;256.30;2252.80;;;;;;5092362;28;20034;-60
2023/01/06 05:17:43;;;;;;;27.80;20.92;;;256.30;2252.80;;;;;;5092069;28;20027;-58
2023/01/06 05:20:09;;;;;;;22.63;14.65;;;256.20;2252.80;;;;;;5092013;28;20118;-60
2023/01/06 05:22:35;;;;;;;27.30;15.45;;;256.20;2252.80;;;;;;5092161;28;20386;-59
2023/01/06 05:25:00;;;;;;;28.95;20.83;;;256.10;2252.80;;;;;;5092011;28;20027;-60
2023/01/06 05:27:26;;;;;;;44.75;32.05;;;231.10;2252.80;;;;;;5092219;28;20024;-59
2023/01/06 05:29:52;;;;;;;27.90;21.45;;;230.80;2252.80;;;;;;5091899;28;20035;-59
2023/01/06 05:32:17;;;;;;;37.58;25.17;;;230.80;2252.80;;;;;;5092302;28;20107;-59
2023/01/06 05:34:43;;;;;;;24.17;16.02;;;231.00;2252.80;;;;;;5091963;28;20474;-58
2023/01/06 05:37:09;;;;;;;24.75;15.32;;;231.00;2252.80;;;;;;5091729;28;20052;-59
2023/01/06 05:39:34;;;;;;;23.13;15.95;;;231.20;2252.80;;;;;;5091806;28;20086;-60
2023/01/06 05:42:00;;;;;;;22.92;19.38;;;231.20;2252.80;;;;;;5091864;28;20419;-60
2023/01/06 05:44:26;;;;;;;41.53;27.95;;;231.30;2252.80;;;;;;5091689;28;20028;-57
2023/01/06 05:46:51;;;;;;;21.23;14.00;;;231.30;2252.80;;;;;;5090616;28;20052;-58
2023/01/06 05:49:17;;;;;;;40.05;29.38;;;231.30;2252.80;;;;;;5090987;28;20035;-57
2023/01/06 05:51:43;;;;;;;23.08;17.70;;;231.30;2252.80;;;;;;5090724;28;20024;-58
2023/01/06 05:54:09;;;;;;;26.45;19.73;;;231.30;2252.80;;;;;;5091250;28;20077;-59
2023/01/06 05:56:35;;;;;;;18.98;13.63;;;231.30;2252.80;;;;;;5091459;28;20030;-59
2023/01/06 05:59:01;;;;;;;18.33;12.90;;;231.30;2252.80;;;;;;5091290;28;20092;-58
2023/01/06 06:01:30;;;;;;;24.33;13.90;;;231.00;2252.80;;;;;;5091571;28;20020;-59
2023/01/06 06:03:56;;;;;;;21.23;14.77;;;230.90;2252.80;;;;;;5091248;28;20020;-58
2023/01/06 06:06:24;;;;;;;26.83;19.83;;;230.90;2252.80;;;;;;5091199;28;20031;-59
2023/01/06 06:08:50;;;;;;;18.65;12.45;;;230.80;2252.80;;;;;;5090981;28;20031;-59
2023/01/06 06:11:18;;;;;;;21.40;12.70;;;230.70;2252.80;;;;;;5091257;28;20024;-59
2023/01/06 06:13:52;;;;;;;14.27;8.52;;;230.60;2252.80;;;;;;5091226;28;20115;-58
2023/01/06 06:16:20;;;;;;;11.15;7.78;;;230.70;2252.80;;;;;;5091346;28;20027;-61
2023/01/06 06:18:49;;;;;;;10.52;5.75;;;230.70;2252.80;;;;;;5090862;28;20048;-59
2023/01/06 06:21:17;;;;;;;15.52;7.70;;;230.70;2252.80;;;;;;5090730;28;20020;-61
2023/01/06 06:23:43;;;;;;;11.23;7.65;;;230.60;2252.80;;;;;;5090917;28;20032;-59
2023/01/06 06:26:10;;;;;;;15.38;8.63;;;230.60;2252.80;;;;;;5090780;28;20026;-59
2023/01/06 06:28:37;;;;;;;8.63;6.05;;;230.50;2252.80;;;;;;5090860;28;20541;-59
2023/01/06 06:31:04;;;;;;;13.82;9.55;;;230.50;2252.80;;;;;;5090002;28;20025;-59
2023/01/06 06:33:29;;;;;;;18.17;12.05;;;230.60;2252.80;;;;;;5090637;28;20028;-58
2023/01/06 06:35:56;;;;;;;20.13;13.10;;;230.60;2252.80;;;;;;5090655;28;20098;-59
2023/01/06 06:38:22;;;;;;;16.83;14.40;;;230.60;2252.80;;;;;;5090323;28;20115;-59
2023/01/06 06:40:48;;;;;;;30.48;22.13;;;230.60;2252.80;;;;;;5090467;28;20170;-59
2023/01/06 06:43:13;;;;;;;34.78;31.05;;;230.70;2252.80;;;;;;5090670;28;20028;-59
2023/01/06 06:45:39;;;;;;;12.60;9.82;;;230.80;2252.80;;;;;;5090391;28;20055;-59
2023/01/06 06:48:05;;;;;;;14.18;12.80;;;231.00;2252.80;;;;;;5090592;28;20055;-58
2023/01/06 06:50:31;;;;;;;11.88;8.52;;;231.10;2252.80;;;;;;5090520;28;20591;-59
2023/01/06 06:52:56;;;;;;;9.90;8.02;;;231.10;2252.80;;;;;;5090524;28;20020;-58
2023/01/06 06:55:22;;;;;;;15.73;13.20;;;231.20;2252.80;;;;;;5090278;28;20055;-59
2023/01/06 06:57:48;;;;;;;13.20;10.80;;;231.30;2252.80;;;;;;5090380;28;20496;-58
2023/01/06 07:00:14;;;;;;;9.82;8.20;;;256.10;2252.80;;;;;;5090504;28;20032;-58
2023/01/06 07:02:39;;;;;;;7.40;6.18;;;256.00;2252.80;;;;;;5090297;28;20055;-59
2023/01/06 07:05:05;;;;;;;7.03;5.10;;;256.00;2252.80;;;;;;5089495;28;20061;-57
2023/01/06 07:07:31;;;;;;;12.10;9.63;;;256.10;2252.80;;;;;;5089451;28;20530;-58
2023/01/06 07:09:57;;;;;;;10.77;8.55;;;256.20;2252.80;;;;;;5089909;28;20031;-58
2023/01/06 07:12:22;;;;;;;9.60;7.75;;;256.40;2252.80;;;;;;5088448;28;20180;-61
2023/01/06 07:14:48;;;;;;;15.45;11.32;;;256.50;2252.80;;;;;;5087089;28;20012;-61
2023/01/06 07:17:14;;;;;;;12.57;7.97;;;256.70;2252.80;;;;;;5089799;28;20047;-59
2023/01/06 07:19:39;;;;;;;13.35;7.72;;;256.70;2252.80;;;;;;5089605;28;20028;-58
2023/01/06 07:22:05;;;;;;;7.88;5.45;;;256.80;2252.80;;;;;;5090306;28;20494;-59
2023/01/06 07:24:31;;;;;;;9.18;6.45;;;256.90;2252.80;;;;;;5090136;28;20420;-61
2023/01/06 07:26:56;;;;;;;12.23;7.25;;;256.70;2252.80;;;;;;5090062;28;20024;-59
2023/01/06 07:29:22;;;;;;;9.38;6.85;;;256.70;2252.80;;;;;;5089774;28;20089;-61
2023/01/06 07:31:48;;;;;;;12.55;8.38;;;256.70;2252.80;;;;;;5090085;28;20035;-62
2023/01/06 07:34:13;;;;;;;12.77;8.27;;;256.70;2252.80;;;;;;5092788;28;20085;-61
2023/01/06 07:36:39;;;;;;;22.10;15.23;;;256.80;2252.80;;;;;;5094394;28;20107;-59
2023/01/06 07:39:05;;;;;;;31.88;23.08;;;256.80;2252.80;;;;;;5093877;28;20039;-59
2023/01/06 07:41:31;;;;;;;41.05;29.20;;;256.70;2252.80;;;;;;5094119;28;20216;-58
2023/01/06 07:43:57;;;;;;;29.02;21.95;;;256.60;2252.80;;;;;;5094150;28;20032;-58
2023/01/06 07:46:22;;;;;;;20.05;16.10;;;256.60;2252.80;;;;;;5093800;28;20103;-61
2023/01/06 07:48:48;;;;;;;19.85;15.15;;;256.70;2252.80;;;;;;5093978;28;20026;-60
2023/01/06 07:51:14;;;;;;;14.85;10.98;;;256.90;2252.80;;;;;;5094162;28;20370;-59
2023/01/06 07:53:39;;;;;;;15.43;10.52;;;256.90;2252.80;;;;;;5091786;28;20103;-66
2023/01/06 07:56:05;;;;;;;19.13;11.90;;;281.60;2278.40;;;;;;5091510;28;20027;-65
2023/01/06 07:58:31;;;;;;;23.13;17.58;;;256.80;2252.80;;;;;;5090430;28;20695;-63
2023/01/06 08:00:57;;;;;;;25.92;17.52;;;281.80;2278.40;;;;;;5090724;28;20115;-64
2023/01/06 08:03:22;;;;;;;29.45;21.05;;;282.00;2278.40;;;;;;5091276;28;20031;-61
2023/01/06 08:05:48;;;;;;;20.55;15.75;;;282.10;2278.40;;;;;;5090496;28;20389;-59
2023/01/06 08:08:14;;;;;;;140.02;92.60;;;282.20;2278.40;;;;;;5090297;28;20025;-65
2023/01/06 08:10:41;;;;;;;39.17;27.30;;;282.30;2278.40;;;;;;5087426;28;20024;-65
2023/01/06 08:13:08;;;;;;;30.70;23.23;;;282.30;2278.40;;;;;;5090621;28;20073;-66
2023/01/06 08:15:35;;;;;;;50.53;45.08;;;282.40;2278.40;;;;;;5090518;28;20065;-63
2023/01/06 08:18:01;;;;;;;29.55;24.60;;;307.20;2304.00;;;;;;5087784;28;20042;-65
2023/01/06 08:20:27;;;;;;;26.58;23.42;;;307.40;2304.00;;;;;;5089898;28;20024;-62
2023/01/06 08:22:52;;;;;;;27.17;24.42;;;307.60;2304.00;;;;;;5091973;28;20545;-60
2023/01/06 08:25:18;;;;;;;22.73;18.80;;;307.70;2304.00;;;;;;5092042;28;20030;-61
2023/01/06 08:27:44;;;;;;;17.42;13.38;;;307.80;2304.00;;;;;;5090514;28;20067;-65
2023/01/06 08:30:10;;;;;;;23.27;16.55;;;308.10;2304.00;;;;;;5090413;28;20362;-64
2023/01/06 08:32:36;;;;;;;26.40;18.60;;;333.00;2329.60;;;;;;5090681;28;20048;-59
2023/01/06 08:35:01;;;;;;;30.48;13.75;;;333.20;2329.60;;;;;;5090447;28;20534;-63
2023/01/06 08:37:27;;;;;;;17.58;13.60;;;333.20;2329.60;;;;;;5090969;28;20466;-66
2023/01/06 08:39:53;;;;;;;28.05;16.73;;;333.40;2329.60;;;;;;5089840;28;20059;-64
2023/01/06 08:42:18;;;;;;;23.77;17.83;;;333.40;2329.60;;;;;;5090195;28;20024;-61
2023/01/06 08:44:45;;;;;;;23.08;20.55;;;333.30;2329.60;;;;;;5089951;28;20611;-66
2023/01/06 08:47:10;;;;;;;42.53;35.08;;;333.20;2329.60;;;;;;5089164;28;20030;-65
2023/01/06 08:49:36;;;;;;;18.92;15.20;;;333.20;2329.60;;;;;;5090051;28;20369;-63
2023/01/06 08:52:02;;;;;;;17.65;13.80;;;333.30;2329.60;;;;;;5090052;28;20020;-62
2023/01/06 08:54:29;;;;;;;15.90;13.02;;;333.20;2329.60;;;;;;5090370;28;20334;-66
2023/01/06 08:56:56;;;;;;;20.77;14.32;;;333.30;2329.60;;;;;;5089792;28;20031;-66
2023/01/06 08:59:21;;;;;;;18.30;11.02;;;333.20;2329.60;;;;;;5089889;28;20127;-64
2023/01/06 09:01:47;;;;;;;16.30;12.48;;;333.40;2329.60;;;;;;5089910;28;20035;-64
2023/01/06 09:04:13;;;;;;;45.65;26.05;;;333.60;2329.60;;;;;;5089979;28;20445;-59
2023/01/06 09:06:42;;;;;;;30.73;27.42;;;333.70;2329.60;;;;;;5089922;28;20041;-59
2023/01/06 09:09:08;;;;;;;141.32;103.32;;;358.40;2329.60;;;;;;5089709;28;20543;-66
2023/01/06 09:11:34;;;;;;;202.23;152.13;;;358.40;2329.60;;;;;;5089887;28;20069;-66
2023/01/06 09:14:00;;;;;;;63.47;45.50;;;333.70;2329.60;;;;;;5087264;28;20106;-64
2023/01/06 09:16:25;;;;;;;23.80;17.25;;;333.70;2329.60;;;;;;5089817;28;20365;-62
2023/01/06 09:18:52;;;;;;;19.63;12.98;;;333.70;2329.60;;;;;;5089564;28;20347;-63
2023/01/06 09:21:21;;;;;;;17.83;12.02;;;358.40;2329.60;;;;;;5090083;28;20024;-65
2023/01/06 09:23:47;;;;;;;18.55;12.80;;;358.40;2329.60;;;;;;5089500;28;20550;-60
2023/01/06 09:26:15;;;;;;;17.35;11.43;;;358.60;2329.60;;;;;;5089402;28;20020;-64
2023/01/06 09:28:40;;;;;;;12.77;9.15;;;358.60;2329.60;;;;;;5087041;28;20073;-60
2023/01/06 09:31:07;;;;;;;20.10;13.32;;;358.80;2329.60;;;;;;5089451;28;20486;-62
2023/01/06 09:33:33;;;;;;;36.50;28.20;;;359.00;2329.60;;;;;;5089204;28;20020;-63
2023/01/06 09:35:58;;;;;;;19.15;13.25;;;358.90;2329.60;;;;;;5089316;28;20095;-59
2023/01/06 09:38:25;;;;;;;14.13;9.35;;;359.10;2329.60;;;;;;5090342;28;20016;-59
2023/01/06 09:40:59;;;;;;;18.63;12.13;;;384.40;2329.60;;;;;;5090116;28;20040;-62
2023/01/06 09:43:33;;;;;;;15.85;12.63;;;384.80;2227.20;;;;;;5089091;28;20505;-60
2023/01/06 09:46:00;;;;;;;20.58;13.95;;;384.50;2201.60;;;;;;5088743;28;20040;-59
2023/01/06 09:48:38;;;;;;;13.23;10.27;;;359.30;2227.20;;;;;;5087130;28;20514;-65
2023/01/06 09:51:05;;;;;;;13.98;9.88;;;359.30;2227.20;;;;;;5089010;28;20042;-62
2023/01/06 09:53:39;;;;;;;13.75;9.50;;;359.10;2304.00;;;;;;5089021;28;20512;-59
2023/01/06 09:56:12;;;;;;;12.57;8.02;;;359.00;2329.60;;;;;;5086197;28;20023;-60
2023/01/06 09:58:46;;;;;;;159.55;125.60;;;358.80;2329.60;;;;;;5088636;28;20914;-59
2023/01/06 10:01:24;;;;;;;10.02;8.40;;;358.70;2329.60;;;;;;5087622;28;20035;-62
2023/01/06 10:03:49;;;;;;;19.88;13.57;;;358.60;2329.60;;;;;;5087091;28;20059;-61
2023/01/06 10:06:18;;;;;;;26.95;19.33;;;358.60;2329.60;;;;;;5088682;28;20105;-62
2023/01/06 10:08:52;;;;;;;29.65;15.75;;;358.40;2329.60;;;;;;5088715;28;20040;-61
2023/01/06 10:11:51;;;;;;;29.02;19.30;;;358.60;2329.60;;;;;;5088890;28;20115;-60
2023/01/06 10:15:08;;;;;;;70.95;47.25;;;358.70;2329.60;;;;;;5089718;28;20024;-62
2023/01/06 10:17:54;;;;;;;79.47;52.00;;;358.60;2329.60;;;;;;5046544;28;20043;-59
2023/01/06 10:20:31;;;;;;;11.30;6.70;;;358.50;2304.00;;;;;;5090881;28;20110;-59
2023/01/06 10:23:21;;;;;;;10.35;6.00;;;333.70;2329.60;;;;;;5091128;28;20020;-59
2023/01/06 10:25:53;;;;;;;14.55;9.38;;;333.70;2329.60;;;;;;5091020;28;20036;-59
2023/01/06 10:28:29;;;;;;;12.30;7.07;;;358.40;2329.60;;;;;;5091089;28;20101;-60
2023/01/06 10:30:59;;;;;;;13.70;8.52;;;333.70;2329.60;;;;;;5090932;28;20027;-58
2023/01/06 10:33:49;;;;;;;13.02;7.78;;;333.70;2329.60;;;;;;5090966;28;20028;-58
2023/01/06 10:36:17;;;;;;;17.00;6.15;;;333.70;2329.60;;;;;;5008811;28;20073;-59
2023/01/06 10:38:46;;;;;;;8.93;5.55;;;333.60;2329.60;;;;;;5007293;28;20037;-65
2023/01/06 10:41:38;;;;;;;12.40;7.88;;;333.70;2329.60;;;;;;5007932;28;20049;-59
2023/01/06 10:44:04;;;;;;;32.78;21.95;;;358.40;2329.60;;;;;;5008728;28;20435;-59
2023/01/06 10:46:33;;;;;;;53.63;31.45;;;358.50;2329.60;;;;;;5008144;28;20137;-59
2023/01/06 10:49:01;;;;;;;10.55;7.50;;;358.80;2304.00;;;;;;5008684;28;20053;-59
2023/01/06 10:51:43;;;;;;;20.70;14.20;;;358.90;2227.20;;;;;;5008831;28;20564;-61
2023/01/06 10:54:12;;;;;;;11.43;6.20;;;359.00;2227.20;;;;;;5008335;28;20066;-60
2023/01/06 10:56:44;;;;;;;12.05;6.18;;;359.00;2201.60;;;;;;5008159;28;20528;-59
2023/01/06 10:59:10;;;;;;;24.55;19.98;;;359.00;2176.00;;;;;;5008196;28;20121;-59
2023/01/06 11:01:48;;;;;;;12.77;10.50;;;359.10;2176.00;;;;;;5008434;28;20037;-65
2023/01/06 11:04:16;;;;;;;47.85;34.90;;;359.00;2176.00;;;;;;5008343;28;20172;-59
2023/01/06 11:06:53;;;;;;;57.75;44.38;;;359.10;2201.60;;;;;;5008184;28;20038;-61
2023/01/06 11:09:40;;;;;;;67.30;50.30;;;359.30;2150.40;;;;;;5008299;28;20033;-59
2023/01/06 11:12:13;;;;;;;29.65;20.80;;;384.10;2124.80;;;;;;5010424;28;20488;-59
2023/01/06 11:14:39;;;;;;;;;;;384.30;2124.80;;;;;;5090664;28;20028;-60
2023/01/06 11:17:14;;;;;;;32.47;21.02;;;384.10;2150.40;;;;;;5090218;28;20045;-65
2023/01/06 11:19:43;;;;;;;17.52;9.73;;;384.10;2150.40;;;;;;5090067;28;20169;-59
2023/01/06 11:22:35;;;;;;;122.47;91.15;;;359.20;2150.40;;;;;;5089912;28;20024;-60
2023/01/06 11:25:02;;;;;;;32.20;23.92;;;359.10;2150.40;;;;;;5090074;28;20020;-59
2023/01/06 11:27:27;;;;;;;116.72;70.10;;;359.10;2150.40;;;;;;5090219;28;20434;-59
2023/01/06 11:29:53;;;;;;;27.70;20.38;;;359.00;2150.40;;;;;;5088591;28;20052;-65
2023/01/06 11:32:28;;;;;;;28.42;17.40;;;358.90;2150.40;;;;;;5088501;28;20028;-60
2023/01/06 11:35:00;;;;;;;20.15;13.32;;;358.80;2176.00;;;;;;5085919;28;20024;-63
2023/01/06 11:37:36;;;;;;;26.48;18.15;;;358.80;2201.60;;;;;;5089171;28;20051;-64
2023/01/06 11:40:28;;;;;;;47.47;44.00;;;358.80;2176.00;;;;;;5089880;28;20082;-60
2023/01/06 11:42:57;;;;;;;74.57;52.95;;;358.80;2201.60;;;;;;5079364;28;20040;-59
2023/01/06 11:45:34;;;;;;;28.50;18.98;;;358.80;2201.60;;;;;;5089459;28;20052;-64
2023/01/06 11:48:05;;;;;;;192.25;136.90;;;358.70;2150.40;;;;;;5089807;28;20427;-64
2023/01/06 11:50:31;;;;;;;9.13;6.35;;;358.70;2150.40;;;;;;5089764;28;20028;-62
2023/01/06 11:53:02;;;;;;;76.25;68.93;;;358.70;2150.40;;;;;;5090034;28;20501;-59
2023/01/06 11:55:29;;;;;;;51.33;44.80;;;358.70;2201.60;;;;;;5090034;28;20024;-64
2023/01/06 11:58:15;;;;;;;63.72;51.05;;;358.60;2227.20;;;;;;5089785;28;20031;-62
2023/01/06 12:00:54;;;;;;;17.65;14.23;;;358.70;2201.60;;;;;;5089748;28;20036;-59
2023/01/06 12:03:31;;;;;;;21.17;17.95;;;358.70;2201.60;;;;;;5089303;28;20497;-60
2023/01/06 12:06:03;;;;;;;16.90;13.18;;;358.70;2176.00;;;;;;5089725;28;20028;-59
2023/01/06 12:08:35;;;;;;;104.80;78.68;;;358.90;2176.00;;;;;;5089614;28;20032;-62
2023/01/06 12:11:16;;;;;;;64.72;48.75;;;359.00;2150.40;;;;;;5089964;28;20032;-60
2023/01/06 12:13:42;;;;;;;74.75;61.58;;;359.20;2099.20;;;;;;5089552;28;20565;-64
2023/01/06 12:16:18;;;;;;;37.78;29.33;;;359.10;2124.80;;;;;;5089794;28;20032;-63
2023/01/06 12:18:44;;;;;;;15.05;6.85;;;359.30;2099.20;;;;;;5089669;28;20020;-59